Time;durP1;ratioP1;P1;durP2;ratioP2;P2;SDS_P1;SDS_P2;PMS_P1;PMS_P2;Temp;Humidity;BMP_temperature;BMP_pressure;BME280_temperature;BME280_humidity;BME280_pressure;Samples;Min_cycle;Max_cycle;Signal;HPM_P1;HPM_P2
2022/08/06 00:02:08;;;;;;;62.28;59.03;;;;;;;19.18;67.17;97222.88;5033604;28;20190;-62
2022/08/06 00:04:34;;;;;;;53.60;50.75;;;;;;;19.32;66.50;97215.91;5033173;28;20225;-63
2022/08/06 00:06:59;;;;;;;56.80;53.80;;;;;;;19.17;66.85;97226.63;5031815;28;20273;-64
2022/08/06 00:09:32;;;;;;;53.05;50.17;;;;;;;19.23;66.39;97230.81;5033351;28;20262;-63
2022/08/06 00:12:02;;;;;;;153.25;145.25;;;;;;;19.12;65.82;97222.09;5033442;28;20253;-63
2022/08/06 00:14:29;;;;;;;156.25;148.23;;;;;;;19.09;65.85;97222.63;5032922;28;20198;-64
2022/08/06 00:16:55;;;;;;;266.10;251.80;;;;;;;19.02;65.57;97230.09;5033257;28;20186;-63
2022/08/06 00:19:20;;;;;;;248.70;235.23;;;;;;;19.07;65.43;97222.09;5033288;28;20191;-63
2022/08/06 00:21:46;;;;;;;251.05;237.65;;;;;;;19.10;65.31;97217.06;5032946;28;20179;-63
2022/08/06 00:24:12;;;;;;;353.05;333.40;;;;;;;19.11;64.88;97225.81;5033055;28;20214;-63
2022/08/06 00:26:38;;;;;;;418.98;395.00;;;;;;;19.13;64.51;97215.72;5032007;28;20254;-65
2022/08/06 00:29:04;;;;;;;474.35;446.83;;;;;;;19.07;64.25;97220.25;5031862;28;20643;-64
2022/08/06 00:31:30;;;;;;;485.65;457.65;;;;;;;18.98;64.05;97216.56;5033074;28;20187;-64
2022/08/06 00:33:55;;;;;;;453.08;427.25;;;;;;;19.03;64.06;97223.72;5032980;28;20201;-65
2022/08/06 00:36:25;;;;;;;448.40;422.98;;;;;;;18.99;64.17;97223.47;5032009;28;20183;-64
2022/08/06 00:38:51;;;;;;;450.40;424.58;;;;;;;19.04;64.09;97222.66;5033383;28;20183;-64
2022/08/06 00:41:19;;;;;;;492.63;463.88;;;;;;;18.99;64.28;97215.50;5032526;28;20175;-66
2022/08/06 00:43:45;;;;;;;450.08;424.80;;;;;;;19.03;63.35;97221.06;5032881;28;20182;-64
2022/08/06 00:46:11;;;;;;;342.80;323.58;;;;;;;18.94;63.34;97223.47;5032678;28;20594;-64
2022/08/06 00:48:37;;;;;;;336.45;316.17;;;;;;;19.06;62.76;97228.47;5032531;28;20183;-65
2022/08/06 00:51:03;;;;;;;355.52;332.58;;;;;;;18.85;62.75;97221.63;5032640;28;20273;-65
2022/08/06 00:53:28;;;;;;;276.63;260.65;;;;;;;19.04;62.26;97233.28;5032380;28;20662;-65
2022/08/06 00:55:54;;;;;;;255.07;240.65;;;;;;;18.97;62.18;97236.22;5033017;28;20224;-64
2022/08/06 00:58:19;;;;;;;256.15;241.70;;;;;;;18.85;62.29;97235.69;5033454;28;20601;-64
2022/08/06 01:00:45;;;;;;;221.07;208.70;;;;;;;18.68;62.02;97243.94;5040612;28;20182;-65
2022/08/06 01:03:10;;;;;;;189.57;179.38;;;;;;;18.67;62.38;97241.53;5032877;28;20635;-65
2022/08/06 01:05:36;;;;;;;200.05;188.68;;;;;;;18.66;62.05;97245.28;5032514;28;20206;-64
2022/08/06 01:08:02;;;;;;;187.88;177.65;;;;;;;18.80;61.53;97248.97;5031849;28;20213;-65
2022/08/06 01:10:27;;;;;;;193.27;182.57;;;;;;;18.77;61.45;97259.34;5032697;28;20182;-64
2022/08/06 01:12:53;;;;;;;191.40;181.00;;;;;;;18.70;61.72;97256.97;5032308;28;20244;-64
2022/08/06 01:15:18;;;;;;;179.93;169.33;;;;;;;18.72;61.71;97257.50;5032599;28;20197;-64
2022/08/06 01:17:46;;;;;;;186.95;176.82;;;;;;;18.64;62.08;97256.16;5032019;28;20179;-64
2022/08/06 01:20:28;;;;;;;178.85;169.18;;;;;;;18.72;61.51;97259.34;5032510;28;20191;-64
2022/08/06 01:23:15;;;;;;;167.48;158.10;;;;;;;18.64;61.57;97260.69;5031031;28;20589;-64
2022/08/06 01:25:47;;;;;;;167.57;158.32;;;;;;;18.72;61.68;97259.34;5032449;28;20281;-66
2022/08/06 01:28:17;;;;;;;145.52;137.63;;;;;;;18.58;61.54;97267.06;5032063;28;20286;-64
2022/08/06 01:30:49;;;;;;;156.35;147.98;;;;;;;18.63;61.61;97259.09;5032516;28;20190;-64
2022/08/06 01:33:25;;;;;;;136.85;129.55;;;;;;;18.65;60.82;97263.06;5032339;28;20540;-64
2022/08/06 01:35:54;;;;;;;125.05;118.32;;;;;;;18.55;61.02;97256.97;5031521;28;20244;-64
2022/08/06 01:38:31;;;;;;;127.95;121.13;;;;;;;18.49;60.99;97250.84;5034597;28;20194;-65
2022/08/06 01:41:01;;;;;;;116.10;109.93;;;;;;;18.56;61.00;97251.38;5036255;28;20174;-64
2022/08/06 01:43:27;;;;;;;125.15;118.45;;;;;;;18.68;60.98;97262.53;5035888;28;20664;-65
2022/08/06 01:45:55;;;;;;;130.32;123.07;;;;;;;18.53;61.25;97259.06;5035859;28;20278;-65
2022/08/06 01:48:24;;;;;;;131.60;124.43;;;;;;;18.50;61.25;97262.25;5035772;28;20515;-64
2022/08/06 01:50:54;;;;;;;118.78;112.25;;;;;;;18.42;61.17;97260.91;5035706;28;20183;-64
2022/08/06 01:53:28;;;;;;;110.07;104.15;;;;;;;18.35;61.44;97254.25;5035012;28;20684;-64
2022/08/06 01:55:58;;;;;;;109.03;103.30;;;;;;;18.30;61.70;97260.38;5036289;28;20191;-64
2022/08/06 01:58:31;;;;;;;92.88;88.00;;;;;;;18.28;61.32;97260.63;5035481;28;20557;-64
2022/08/06 02:01:00;;;;;;;103.05;97.35;;;;;;;18.21;61.68;97251.34;5035833;28;20236;-65
2022/08/06 02:03:29;;;;;;;87.45;82.53;;;;;;;18.25;61.66;97255.06;5035735;28;20671;-64
2022/08/06 02:05:57;;;;;;;100.80;95.30;;;;;;;18.41;61.36;97254.00;5035844;28;20289;-64
2022/08/06 02:08:27;;;;;;;99.30;93.93;;;;;;;18.31;61.19;97263.81;5035221;28;20186;-64
2022/08/06 02:10:54;;;;;;;91.68;86.68;;;;;;;18.18;61.56;97262.47;5034392;28;20182;-64
2022/08/06 02:13:22;;;;;;;99.55;94.13;;;;;;;18.15;61.75;97260.34;5035702;28;20193;-65
2022/08/06 02:15:49;;;;;;;99.35;94.03;;;;;;;18.02;62.02;97261.66;5035729;28;20194;-65
2022/08/06 02:18:18;;;;;;;116.80;110.43;;;;;;;18.06;62.05;97265.34;5035250;28;20273;-64
2022/08/06 02:20:47;;;;;;;119.97;113.47;;;;;;;18.07;61.99;97271.47;5035993;28;20508;-64
2022/08/06 02:23:19;;;;;;;125.87;118.97;;;;;;;17.93;62.35;97267.72;5035083;28;20559;-64
2022/08/06 02:25:47;;;;;;;135.83;128.57;;;;;;;17.93;62.37;97265.06;5035467;28;20244;-64
2022/08/06 02:28:15;;;;;;;142.93;135.17;;;;;;;17.89;62.75;97279.94;5034976;28;20556;-65
2022/08/06 02:30:44;;;;;;;149.17;141.20;;;;;;;18.01;62.28;97268.00;5035298;28;20670;-64
2022/08/06 02:33:10;;;;;;;167.23;158.33;;;;;;;17.92;62.58;97272.22;5035016;28;20195;-67
2022/08/06 02:35:42;;;;;;;166.47;157.47;;;;;;;17.98;62.32;97265.88;5034525;28;20189;-65
2022/08/06 02:38:14;;;;;;;182.33;172.77;;;;;;;18.03;62.51;97268.56;5035656;28;20257;-65
2022/08/06 02:41:00;;;;;;;190.03;180.00;;;;;;;17.97;62.56;97274.09;5035321;28;20217;-64
2022/08/06 02:43:36;;;;;;;207.57;196.63;;;;;;;17.93;62.83;97279.13;5034559;28;20810;-65
2022/08/06 02:46:38;;;;;;;175.77;166.43;;;;;;;17.91;62.87;97283.09;5034952;28;20202;-65
2022/08/06 02:49:11;;;;;;;171.93;162.43;;;;;;;17.83;63.00;97277.22;5033855;28;20216;-64
2022/08/06 02:51:44;;;;;;;213.63;202.40;;;;;;;17.81;63.42;97271.41;5034906;28;20182;-64
2022/08/06 02:54:19;;;;;;;187.37;177.63;;;;;;;17.83;63.20;97274.56;5034850;28;20282;-64
2022/08/06 02:56:46;;;;;;;228.27;216.30;;;;;;;17.83;63.20;97279.88;5034953;28;20190;-64
2022/08/06 02:59:17;;;;;;;178.60;169.30;;;;;;;17.56;64.04;97275.78;5048552;28;20216;-64
2022/08/06 03:01:50;;;;;;;166.37;157.97;;;;;;;17.59;64.13;97273.41;5034770;28;20175;-64
2022/08/06 03:04:17;;;;;;;130.57;123.80;;;;;;;17.64;63.73;97270.81;5034603;28;20206;-64
2022/08/06 03:06:46;;;;;;;152.23;144.37;;;;;;;17.75;63.64;97274.28;5034758;28;20209;-64
2022/08/06 03:09:14;;;;;;;149.43;141.57;;;;;;;17.66;63.61;97276.66;5034599;28;20261;-64
2022/08/06 03:11:41;;;;;;;133.17;126.30;;;;;;;17.62;64.09;97272.91;5034789;28;20192;-64
2022/08/06 03:14:08;;;;;;;102.77;97.27;;;;;;;17.72;64.12;97280.91;5032825;28;20186;-64
2022/08/06 03:16:36;;;;;;;114.97;109.00;;;;;;;17.70;63.57;97276.94;5033261;28;20278;-65
2022/08/06 03:19:03;;;;;;;111.70;105.90;;;;;;;17.74;64.09;97273.50;5034334;28;20196;-64
2022/08/06 03:21:30;;;;;;;104.53;99.07;;;;;;;17.77;63.92;97280.94;5034231;28;20549;-64
2022/08/06 03:24:00;;;;;;;109.60;103.93;;;;;;;17.64;64.08;97281.41;5034276;28;20183;-64
2022/08/06 03:26:26;;;;;;;102.40;96.97;;;;;;;17.73;63.83;97282.50;5034377;28;20555;-64
2022/08/06 03:28:55;;;;;;;133.27;126.37;;;;;;;17.73;63.91;97287.81;5034009;28;20175;-65
2022/08/06 03:31:22;;;;;;;94.87;89.87;;;;;;;17.51;64.66;97284.50;5032721;28;20217;-65
2022/08/06 03:33:48;;;;;;;69.03;65.33;;;;;;;17.60;64.42;97285.66;5033786;28;20210;-64
2022/08/06 03:36:14;;;;;;;53.63;50.37;;;;;;;17.45;64.80;97293.47;5033453;28;20218;-64
2022/08/06 03:38:45;;;;;;;47.40;44.80;;;;;;;17.52;64.87;97287.94;5034168;28;20190;-64
2022/08/06 03:41:13;;;;;;;46.00;43.57;;;;;;;17.52;65.02;97291.41;5033843;28;20313;-66
2022/08/06 03:43:38;;;;;;;52.60;49.77;;;;;;;17.51;64.88;97296.97;5033599;28;20270;-65
2022/08/06 03:46:06;;;;;;;49.40;46.67;;;;;;;17.55;64.89;97301.50;5033833;28;20282;-65
2022/08/06 03:48:36;;;;;;;49.73;46.97;;;;;;;17.50;65.02;97301.44;5033934;28;20232;-65
2022/08/06 03:51:04;;;;;;;45.20;42.80;;;;;;;17.44;65.23;97305.94;5033637;28;20195;-64
2022/08/06 03:53:35;;;;;;;64.67;60.80;;;;;;;17.33;65.53;97301.63;5033398;28;20261;-64
2022/08/06 03:56:04;;;;;;;50.73;48.03;;;;;;;17.37;65.50;97308.03;5033680;28;20624;-64
2022/08/06 03:58:32;;;;;;;42.83;40.57;;;;;;;17.28;65.75;97314.84;5037656;28;20647;-64
2022/08/06 04:01:14;;;;;;;30.30;28.47;;;;;;;17.24;66.29;97310.31;5032488;28;20186;-65
2022/08/06 04:03:40;;;;;;;28.60;27.10;;;;;;;17.19;66.52;97310.28;5033067;28;20253;-64
2022/08/06 04:06:09;;;;;;;25.67;24.07;;;;;;;17.35;65.94;97314.63;5032977;28;20311;-64
2022/08/06 04:08:36;;;;;;;35.83;33.90;;;;;;;17.27;66.24;97312.47;5033033;28;20178;-65
2022/08/06 04:11:03;;;;;;;37.13;35.03;;;;;;;17.16;66.79;97318.78;5033386;28;20194;-64
2022/08/06 04:13:29;;;;;;;49.27;46.67;;;;;;;17.09;67.26;97318.19;5032634;28;20249;-64
2022/08/06 04:15:55;;;;;;;56.17;53.17;;;;;;;17.20;66.94;97314.56;5033357;28;20198;-65
2022/08/06 04:18:24;;;;;;;70.30;66.47;;;;;;;17.20;66.68;97325.94;5032857;28;20190;-64
2022/08/06 04:20:54;;;;;;;64.07;60.70;;;;;;;17.09;67.39;97334.06;5033327;28;20189;-64
2022/08/06 04:23:19;;;;;;;64.50;60.67;;;;;;;17.19;67.03;97316.41;5033006;28;20186;-64
2022/08/06 04:25:49;;;;;;;77.70;73.47;;;;;;;17.16;67.34;97330.16;5032993;28;20253;-65
2022/08/06 04:28:17;;;;;;;96.23;91.10;;;;;;;17.23;67.17;97329.91;5032748;28;20659;-65
2022/08/06 04:30:44;;;;;;;86.37;81.70;;;;;;;17.35;66.75;97336.63;5033006;28;20266;-64
2022/08/06 04:33:12;;;;;;;72.80;68.87;;;;;;;17.30;67.26;97341.09;5032764;28;20732;-68
2022/08/06 04:35:40;;;;;;;87.30;82.63;;;;;;;17.23;67.44;97349.25;5030110;28;20190;-65
2022/08/06 04:38:06;;;;;;;114.50;108.33;;;;;;;17.15;67.48;97341.00;5032667;28;20182;-65
2022/08/06 04:40:32;;;;;;;153.57;145.33;;;;;;;17.15;67.71;97343.66;5032567;28;20183;-65
2022/08/06 04:42:58;;;;;;;137.60;130.07;;;;;;;17.20;67.75;97343.69;5032405;28;20229;-64
2022/08/06 04:45:24;;;;;;;232.93;220.47;;;;;;;17.14;68.07;97352.66;5031994;28;20690;-65
2022/08/06 04:47:51;;;;;;;257.47;243.63;;;;;;;17.00;68.63;97355.72;5031703;28;20187;-65
2022/08/06 04:50:16;;;;;;;384.20;363.37;;;;;;;16.95;68.64;97347.75;5032614;28;20202;-64
2022/08/06 04:52:42;;;;;;;378.07;358.03;;;;;;;17.17;68.13;97357.44;5032729;28;20188;-64
2022/08/06 04:55:08;;;;;;;382.67;361.80;;;;;;;17.15;68.32;97364.84;5032019;28;20554;-65
2022/08/06 04:57:33;;;;;;;404.20;382.43;;;;;;;17.11;68.85;97361.91;5031846;28;20408;-64
2022/08/06 04:59:59;;;;;;;454.30;429.40;;;;;;;17.06;68.89;97369.81;5032562;28;20679;-64
2022/08/06 05:02:24;;;;;;;512.30;483.60;;;;;;;16.96;69.32;97361.78;5032379;28;20333;-64
2022/08/06 05:04:55;;;;;;;583.67;550.20;;;;;;;16.84;69.85;97371.75;5031647;28;20206;-64
2022/08/06 05:07:24;;;;;;;553.97;522.17;;;;;;;16.90;70.00;97376.03;5033016;28;20174;-64
2022/08/06 05:09:50;;;;;;;501.77;473.53;;;;;;;16.78;70.22;97370.88;5032384;28;20240;-65
2022/08/06 05:12:46;;;;;;;518.80;489.20;;;;;;;16.88;70.31;97378.94;5033317;28;20189;-65
2022/08/06 05:15:26;;;;;;;530.23;500.47;;;;;;;16.97;69.95;97382.72;5019678;28;20202;-64
2022/08/06 05:18:01;;;;;;;560.13;527.90;;;;;;;16.85;70.37;97382.09;5036565;28;20182;-64
2022/08/06 05:20:30;;;;;;;599.77;565.40;;;;;;;17.06;69.61;97377.75;5036132;28;20189;-64
2022/08/06 05:23:01;;;;;;;582.97;549.40;;;;;;;17.02;69.82;97385.41;5036566;28;20256;-64
2022/08/06 05:25:27;;;;;;;646.10;608.07;;;;;;;17.19;69.74;97382.63;5034621;28;20765;-65
2022/08/06 05:27:52;;;;;;;635.33;597.73;;;;;;;17.24;68.99;97392.47;5036171;28;20191;-64
2022/08/06 05:30:18;;;;;;;666.87;627.03;;;;;;;17.07;69.85;97397.09;5036245;28;20182;-64
2022/08/06 05:32:46;;;;;;;640.30;602.37;;;;;;;17.09;69.94;97390.50;5036386;28;20186;-64
2022/08/06 05:35:12;;;;;;;623.40;586.73;;;;;;;17.20;69.71;97399.31;5035412;28;20186;-64
2022/08/06 05:37:38;;;;;;;677.30;636.50;;;;;;;17.16;69.63;97387.66;5036206;28;20183;-65
2022/08/06 05:40:04;;;;;;;593.73;558.60;;;;;;;17.14;69.65;97390.53;5035844;28;20241;-66
2022/08/06 05:42:30;;;;;;;541.47;510.00;;;;;;;17.18;69.52;97388.97;5036220;28;20197;-64
2022/08/06 05:44:55;;;;;;;578.70;544.83;;;;;;;17.33;69.29;97398.91;5035884;28;20210;-64
2022/08/06 05:47:24;;;;;;;628.23;590.27;;;;;;;17.12;70.09;97395.28;5034266;28;20178;-64
2022/08/06 05:49:59;;;;;;;600.03;563.93;;;;;;;17.08;70.69;97404.00;5035902;28;20514;-64
2022/08/06 05:53:01;;;;;;;486.87;459.60;;;;;;;17.28;70.07;97409.44;5035603;28;20182;-63
2022/08/06 05:56:06;;;;;;;515.27;485.80;;;;;;;17.21;70.40;97416.81;5036064;28;20224;-64
2022/08/06 05:58:36;;;;;;;438.77;414.10;;;;;;;17.26;70.26;97408.91;5024134;28;20555;-63
2022/08/06 06:01:03;;;;;;;554.73;522.20;;;;;;;17.20;70.58;97409.94;5035607;28;20232;-63
2022/08/06 06:03:30;;;;;;;644.03;605.57;;;;;;;17.44;69.21;97411.94;5035804;28;20190;-64
2022/08/06 06:05:57;;;;;;;668.20;628.17;;;;;;;17.38;69.46;97413.00;5035400;28;20209;-63
2022/08/06 06:08:23;;;;;;;702.70;660.97;;;;;;;17.28;69.98;97415.53;5035312;28;20183;-64
2022/08/06 06:10:50;;;;;;;675.13;635.00;;;;;;;17.43;69.68;97410.38;5035870;28;20186;-63
2022/08/06 06:13:16;;;;;;;403.47;380.10;;;;;;;17.85;68.50;97421.00;5035324;28;20651;-63
2022/08/06 06:15:48;;;;;;;175.50;165.37;;;;;;;17.63;69.10;97422.19;5035369;28;20191;-63
2022/08/06 06:18:32;;;;;;;126.53;119.10;;;;;;;17.76;68.28;97416.44;5035270;28;20174;-63
2022/08/06 06:21:07;;;;;;;99.20;93.37;;;;;;;17.77;68.30;97418.84;5035238;28;20186;-63
2022/08/06 06:24:00;;;;;;;87.57;82.60;;;;;;;17.74;68.19;97429.94;5034963;28;20189;-64
2022/08/06 06:26:35;;;;;;;98.90;93.23;;;;;;;17.93;67.55;97422.38;5032110;28;20567;-63
2022/08/06 06:29:16;;;;;;;66.90;63.23;;;;;;;17.83;68.33;97425.75;5035149;28;20689;-64
2022/08/06 06:31:57;;;;;;;48.40;45.63;;;;;;;17.99;67.57;97437.25;5035394;28;20174;-64
2022/08/06 06:35:01;;;;;;;39.87;37.63;;;;;;;18.01;67.70;97421.88;5034926;28;20171;-63
2022/08/06 06:37:39;;;;;;;58.55;55.25;;;;;;;18.10;67.40;97430.16;4991837;28;20250;-63
2022/08/06 06:40:39;;;;;;;42.88;40.58;;;;;;;18.21;66.66;97442.41;5034135;28;20259;-63
2022/08/06 06:43:07;;;;;;;149.30;141.18;;;;;;;18.15;67.01;97438.94;5034973;28;20642;-63
2022/08/06 06:45:56;;;;;;;188.52;177.98;;;;;;;18.36;66.57;97442.47;5034312;28;20202;-63
2022/08/06 06:48:34;;;;;;;224.73;212.30;;;;;;;18.43;66.51;97442.22;5034488;28;20179;-64
2022/08/06 06:51:07;;;;;;;336.92;317.92;;;;;;;18.08;66.83;97442.84;5035079;28;20639;-63
2022/08/06 06:53:36;;;;;;;234.15;220.93;;;;;;;18.32;66.55;97449.34;5034718;28;20175;-62
2022/08/06 06:56:04;;;;;;;262.40;247.60;;;;;;;18.21;66.94;97447.72;5036107;28;20220;-62
2022/08/06 06:58:40;;;;;;;270.88;255.43;;;;;;;17.97;68.04;97436.72;5035029;28;20191;-67
2022/08/06 07:01:10;;;;;;;320.10;301.75;;;;;;;18.34;66.74;97446.41;5034269;28;20182;-69
2022/08/06 07:03:38;;;;;;;400.13;377.67;;;;;;;17.72;68.94;97457.78;5034566;28;20510;-69
2022/08/06 07:06:08;;;;;;;415.83;392.15;;;;;;;18.03;67.90;97453.44;5034561;28;20277;-69
2022/08/06 07:08:37;;;;;;;411.95;388.83;;;;;;;18.06;67.67;97458.22;5034267;28;20175;-68
2022/08/06 07:11:10;;;;;;;378.90;357.95;;;;;;;17.91;68.07;97455.50;5027198;28;20187;-68
2022/08/06 07:13:37;;;;;;;380.67;359.52;;;;;;;18.96;64.62;97460.44;5033934;28;20682;-71
2022/08/06 07:16:05;;;;;;;283.10;267.65;;;;;;;18.71;66.06;97456.94;5034147;28;20197;-67
2022/08/06 07:18:32;;;;;;;255.40;241.23;;;;;;;18.48;65.98;97460.81;5032438;28;20190;-64
2022/08/06 07:20:58;;;;;;;323.95;305.80;;;;;;;18.35;66.61;97459.44;5034572;28;20268;-64
2022/08/06 07:23:24;;;;;;;355.45;335.70;;;;;;;18.56;66.29;97462.97;5033959;28;20550;-63
2022/08/06 07:25:54;;;;;;;303.27;285.40;;;;;;;18.40;66.08;97454.16;5033365;28;20230;-67
2022/08/06 07:28:23;;;;;;;282.85;266.92;;;;;;;18.56;66.11;97453.16;5032505;28;20194;-64
2022/08/06 07:30:49;;;;;;;233.27;220.35;;;;;;;19.19;63.92;97466.31;5033933;28;20175;-63
2022/08/06 07:33:16;;;;;;;153.32;145.00;;;;;;;19.08;63.25;97468.97;5033722;28;20594;-63
2022/08/06 07:35:45;;;;;;;144.10;136.30;;;;;;;19.36;63.11;97461.53;5032915;28;20266;-63
2022/08/06 07:38:14;;;;;;;135.65;128.38;;;;;;;18.94;64.02;97475.06;5033154;28;20213;-63
2022/08/06 07:40:47;;;;;;;130.25;123.25;;;;;;;18.86;64.58;97473.72;5033806;28;20183;-63
2022/08/06 07:43:16;;;;;;;138.20;130.93;;;;;;;19.08;63.77;97473.47;5033558;28;20210;-64
2022/08/06 07:45:42;;;;;;;128.98;122.13;;;;;;;18.65;64.48;97475.53;5033253;28;20630;-64
2022/08/06 07:48:11;;;;;;;136.75;129.60;;;;;;;19.01;63.79;97476.38;5032929;28;20214;-65
2022/08/06 07:50:39;;;;;;;131.48;124.25;;;;;;;19.39;63.22;97480.41;5032183;28;20179;-63
2022/08/06 07:53:05;;;;;;;119.25;112.65;;;;;;;18.96;64.42;97484.34;5033307;28;20175;-64
2022/08/06 07:55:32;;;;;;;115.22;109.15;;;;;;;19.03;64.20;97473.47;5035624;28;20274;-64
2022/08/06 07:58:00;;;;;;;133.27;125.95;;;;;;;18.47;65.67;97485.75;5033260;28;20635;-63
2022/08/06 08:00:26;;;;;;;169.70;160.45;;;;;;;18.36;66.15;97484.13;5033287;28;20186;-63
2022/08/06 08:08:24;;;;;;;217.18;204.88;;;;;;;19.09;63.85;97475.88;5033501;28;20654;-62
2022/08/06 08:10:51;;;;;;;158.70;150.02;;;;;;;19.03;63.90;97479.59;5032908;28;20659;-63
2022/08/06 08:13:18;;;;;;;139.40;131.90;;;;;;;18.71;64.17;97468.38;5033191;28;20274;-63
2022/08/06 08:15:46;;;;;;;144.52;136.35;;;;;;;18.94;63.67;97472.41;5032723;28;20242;-65
2022/08/06 08:18:11;;;;;;;136.43;129.02;;;;;;;18.83;63.49;97474.25;5032898;28;20273;-64
2022/08/06 08:20:39;;;;;;;139.35;131.77;;;;;;;18.77;64.32;97474.50;5032606;28;20293;-62
2022/08/06 08:23:06;;;;;;;152.68;144.38;;;;;;;18.97;63.30;97474.53;5032207;28;20257;-63
2022/08/06 08:25:33;;;;;;;132.98;125.82;;;;;;;18.71;63.62;97464.91;5031509;28;20580;-62
2022/08/06 08:27:59;;;;;;;164.15;155.45;;;;;;;19.16;62.40;97459.69;5032801;28;20222;-63
2022/08/06 08:30:24;;;;;;;154.75;146.55;;;;;;;18.95;63.08;97455.38;5032807;28;20214;-63
2022/08/06 08:32:50;;;;;;;142.90;135.35;;;;;;;18.99;62.45;97446.66;5032888;28;20195;-64
2022/08/06 08:35:15;;;;;;;143.40;135.77;;;;;;;19.20;63.04;97462.59;5031894;28;20230;-64
2022/08/06 08:37:41;;;;;;;123.95;117.28;;;;;;;19.60;60.87;97459.19;5033022;28;20183;-64
2022/08/06 08:40:08;;;;;;;99.72;94.55;;;;;;;19.43;61.45;97457.56;5032988;28;20256;-64
2022/08/06 08:42:42;;;;;;;108.80;102.90;;;;;;;19.65;60.54;97470.63;5032792;28;20179;-63
2022/08/06 08:45:09;;;;;;;116.35;110.35;;;;;;;19.60;60.84;97472.47;5032288;28;20202;-64
2022/08/06 08:47:39;;;;;;;119.05;112.85;;;;;;;19.83;58.92;97471.94;5031382;28;20190;-64
2022/08/06 08:50:05;;;;;;;116.60;110.47;;;;;;;19.57;60.12;97479.13;5032731;28;20225;-65
2022/08/06 08:52:34;;;;;;;75.18;71.15;;;;;;;19.66;58.66;97474.06;5032419;28;20190;-64
2022/08/06 08:55:06;;;;;;;71.75;67.72;;;;;;;20.00;57.84;97469.78;5035860;28;20661;-65
2022/08/06 08:57:33;;;;;;;51.10;48.08;;;;;;;19.51;59.00;97464.22;5032392;28;20214;-65
2022/08/06 09:00:00;;;;;;;42.38;39.92;;;;;;;19.78;58.99;97477.25;5030826;28;20264;-64
2022/08/06 09:02:26;;;;;;;37.20;35.08;;;;;;;19.94;58.04;97473.50;5032441;28;20210;-64
2022/08/06 09:04:53;;;;;;;24.92;23.63;;;;;;;20.36;56.60;97481.13;5032922;28;20680;-65
2022/08/06 09:07:20;;;;;;;43.90;41.47;;;;;;;20.21;56.00;97487.28;5026570;28;20277;-66
2022/08/06 09:09:46;;;;;;;25.75;24.23;;;;;;;20.26;56.40;97483.78;5018305;28;20179;-65
2022/08/06 09:12:11;;;;;;;26.58;25.00;;;;;;;20.86;54.54;97474.78;5031980;28;20213;-64
2022/08/06 09:14:37;;;;;;;39.05;36.95;;;;;;;20.30;56.22;97482.19;5030860;28;20222;-66
2022/08/06 09:17:05;;;;;;;35.70;33.63;;;;;;;20.10;57.44;97488.38;5031854;28;20187;-66
2022/08/06 09:19:31;;;;;;;56.55;53.65;;;;;;;20.37;54.96;97484.59;5032375;28;20183;-65
2022/08/06 09:21:57;;;;;;;56.42;53.47;;;;;;;20.75;54.29;97481.22;5032442;28;20550;-65
2022/08/06 09:24:23;;;;;;;44.03;41.60;;;;;;;20.64;54.02;97485.00;5032041;28;20187;-65
2022/08/06 09:27:15;;;;;;;56.90;53.85;;;;;;;20.61;54.06;97483.69;5032232;28;20462;-65
2022/08/06 09:29:51;;;;;;;53.53;50.63;;;;;;;20.24;55.88;97489.38;5032087;28;20628;-65
2022/08/06 09:32:45;;;;;;;48.83;46.17;;;;;;;20.43;55.33;97486.97;5032416;28;20190;-65
2022/08/06 09:35:20;;;;;;;46.97;44.38;;;;;;;20.59;54.54;97493.81;5030959;28;20280;-65
2022/08/06 09:37:47;;;;;;;60.67;57.42;;;;;;;19.63;56.23;97494.00;5029530;28;20236;-64
2022/08/06 09:40:18;;;;;;;80.95;76.85;;;;;;;20.50;54.24;97497.34;5031671;28;20182;-65
2022/08/06 09:42:48;;;;;;;136.50;129.50;;;;;;;20.19;54.90;97497.38;5031792;28;20202;-63
2022/08/06 09:45:15;;;;;;;95.32;90.47;;;;;;;19.87;55.83;97500.38;5031787;28;20216;-65
2022/08/06 09:47:41;;;;;;;190.40;180.80;;;;;;;20.72;52.47;97487.13;5031065;28;20197;-64
2022/08/06 09:50:07;;;;;;;163.15;154.70;;;;;;;20.91;52.36;97492.59;5031995;28;20191;-65
2022/08/06 09:52:33;;;;;;;189.30;179.70;;;;;;;20.85;52.50;97496.34;5031559;28;20183;-65
2022/08/06 09:54:59;;;;;;;167.48;158.82;;;;;;;20.60;52.68;97489.31;5030166;28;20191;-66
2022/08/06 09:57:27;;;;;;;193.38;183.57;;;;;;;20.62;53.21;97493.28;5031692;28;20187;-67
2022/08/06 09:59:53;;;;;;;142.32;134.80;;;;;;;20.73;52.27;97502.03;5035311;28;20190;-65
2022/08/06 10:02:20;;;;;;;132.07;125.22;;;;;;;20.63;52.48;97486.88;5035696;28;20194;-64
2022/08/06 10:04:47;;;;;;;150.43;142.50;;;;;;;20.70;51.94;97490.03;5035394;28;20213;-66
2022/08/06 10:07:15;;;;;;;184.30;174.88;;;;;;;20.41;53.11;97494.41;5035617;28;20183;-64
2022/08/06 10:09:52;;;;;;;163.45;155.02;;;;;;;20.24;52.69;97493.91;5035497;28;20236;-63
2022/08/06 10:12:20;;;;;;;160.65;152.43;;;;;;;20.92;51.91;97492.31;5035463;28;20186;-64
2022/08/06 10:14:46;;;;;;;150.80;143.07;;;;;;;20.71;52.65;97488.97;5035422;28;20539;-64
2022/08/06 10:17:13;;;;;;;165.75;157.40;;;;;;;20.70;52.69;97489.25;5035604;28;20274;-64
2022/08/06 10:19:45;;;;;;;163.75;155.50;;;;;;;20.58;52.10;97502.88;5035537;28;20236;-65
2022/08/06 10:22:12;;;;;;;144.27;136.45;;;;;;;21.01;51.08;97497.91;5035199;28;20253;-65
2022/08/06 10:24:41;;;;;;;124.00;117.80;;;;;;;20.95;51.65;97497.13;5027924;28;20248;-65
2022/08/06 10:27:10;;;;;;;132.80;126.07;;;;;;;21.62;50.11;97495.63;5034641;28;20230;-65
2022/08/06 10:29:40;;;;;;;157.00;149.30;;;;;;;21.41;50.51;97488.84;5035064;28;20210;-65
2022/08/06 10:32:09;;;;;;;269.45;255.65;;;;;;;21.39;50.19;97489.13;5035585;28;20209;-66
2022/08/06 10:34:36;;;;;;;346.73;328.75;;;;;;;21.27;50.46;97483.34;5030018;28;20576;-65
2022/08/06 10:37:07;;;;;;;101.65;96.55;;;;;;;21.36;51.35;97486.19;5035126;28;20194;-65
2022/08/06 10:39:36;;;;;;;83.28;78.90;;;;;;;21.37;50.81;97488.59;5034993;28;20179;-65
2022/08/06 10:42:03;;;;;;;81.40;77.22;;;;;;;21.01;51.35;97497.91;5034101;28;20186;-64
2022/08/06 10:44:29;;;;;;;83.30;79.10;;;;;;;21.26;51.11;97496.94;5034330;28;20240;-65
2022/08/06 10:46:55;;;;;;;275.20;261.30;;;;;;;21.50;49.75;97489.84;5033939;28;20190;-65
2022/08/06 10:49:22;;;;;;;275.60;261.63;;;;;;;21.57;48.91;97492.97;5034531;28;20186;-64
2022/08/06 10:51:49;;;;;;;230.40;218.27;;;;;;;22.29;47.45;97491.25;5034568;28;20179;-64
2022/08/06 10:54:15;;;;;;;189.60;179.63;;;;;;;21.45;49.54;97489.88;5040654;28;20183;-64
2022/08/06 10:56:41;;;;;;;195.93;185.70;;;;;;;21.91;48.19;97485.72;5034640;28;20187;-64
2022/08/06 10:59:07;;;;;;;250.93;238.18;;;;;;;22.35;47.22;97484.75;5033804;28;20178;-65
2022/08/06 11:01:40;;;;;;;204.57;194.52;;;;;;;21.60;49.22;97483.63;5033912;28;20508;-65
2022/08/06 11:04:33;;;;;;;209.05;198.85;;;;;;;21.53;49.50;97478.59;5034084;28;20592;-66
2022/08/06 11:07:20;;;;;;;178.23;169.05;;;;;;;22.14;48.48;97481.53;5034574;28;20179;-65
2022/08/06 11:10:15;;;;;;;144.77;137.38;;;;;;;22.06;48.69;97476.81;5033721;28;20277;-65
2022/08/06 11:12:54;;;;;;;197.57;187.43;;;;;;;22.21;48.36;97478.53;5034242;28;20201;-65
2022/08/06 11:15:20;;;;;;;177.23;168.30;;;;;;;21.71;49.99;97474.44;5034251;28;20174;-65
2022/08/06 11:17:51;;;;;;;236.15;224.40;;;;;;;22.03;48.43;97476.56;5034292;28;20183;-65
2022/08/06 11:20:32;;;;;;;239.50;227.98;;;;;;;22.26;47.94;97473.13;5033874;28;20190;-68
2022/08/06 11:23:25;;;;;;;160.25;151.35;;;;;;;22.46;47.48;97469.44;5033919;28;20194;-66
2022/08/06 11:26:02;;;;;;;242.05;230.23;;;;;;;21.88;49.25;97464.94;5025903;28;20287;-66